sensor_id;sensor_type;location;lat;lon;timestamp;pressure;altitude;pressure_sealevel;temperature;humidity
26657;BME280;14279;50.010;8.260;2022-09-03T00:00:45;100031.66;;;19.76;40.46
26657;BME280;14279;50.010;8.260;2022-09-03T00:05:47;100033.91;;;19.61;40.00
26657;BME280;14279;50.010;8.260;2022-09-03T00:08:27;100030.97;;;19.64;40.07
26657;BME280;14279;50.010;8.260;2022-09-03T00:11:02;100031.66;;;19.56;40.48
26657;BME280;14279;50.010;8.260;2022-09-03T00:13:35;100033.47;;;19.65;40.16
26657;BME280;14279;50.010;8.260;2022-09-03T00:16:05;100026.94;;;19.50;40.23
26657;BME280;14279;50.010;8.260;2022-09-03T00:18:34;100036.50;;;19.51;40.05
26657;BME280;14279;50.010;8.260;2022-09-03T00:21:06;100025.41;;;19.47;40.22
26657;BME280;14279;50.010;8.260;2022-09-03T00:23:44;100027.22;;;19.57;39.69
26657;BME280;14279;50.010;8.260;2022-09-03T00:28:55;100020.81;;;19.40;40.78
26657;BME280;14279;50.010;8.260;2022-09-03T00:31:33;100029.25;;;19.33;40.91
26657;BME280;14279;50.010;8.260;2022-09-03T00:34:14;100024.69;;;19.45;40.46
26657;BME280;14279;50.010;8.260;2022-09-03T00:36:42;100025.66;;;19.44;40.31
26657;BME280;14279;50.010;8.260;2022-09-03T00:39:10;100030.94;;;19.34;40.71
26657;BME280;14279;50.010;8.260;2022-09-03T00:41:43;100028.19;;;19.36;40.50
26657;BME280;14279;50.010;8.260;2022-09-03T00:44:36;100022.72;;;19.28;40.66
26657;BME280;14279;50.010;8.260;2022-09-03T00:47:14;100021.75;;;19.29;40.73
26657;BME280;14279;50.010;8.260;2022-09-03T00:55:41;100009.25;;;19.21;41.59
26657;BME280;14279;50.010;8.260;2022-09-03T01:00:58;100011.31;;;19.27;41.14
26657;BME280;14279;50.010;8.260;2022-09-03T01:03:45;100016.34;;;19.30;40.93
26657;BME280;14279;50.010;8.260;2022-09-03T01:06:24;100022.31;;;19.22;41.18
26657;BME280;14279;50.010;8.260;2022-09-03T01:09:28;100020.75;;;19.10;41.42
26657;BME280;14279;50.010;8.260;2022-09-03T01:12:11;100021.47;;;19.12;41.28
26657;BME280;14279;50.010;8.260;2022-09-03T01:21:37;100016.19;;;19.12;41.72
26657;BME280;14279;50.010;8.260;2022-09-03T01:27:14;100017.16;;;19.11;41.64
26657;BME280;14279;50.010;8.260;2022-09-03T01:30:02;100016.47;;;18.88;41.98
26657;BME280;14279;50.010;8.260;2022-09-03T01:35:29;100017.25;;;19.00;42.08
26657;BME280;14279;50.010;8.260;2022-09-03T01:38:03;100011.97;;;19.00;42.05
26657;BME280;14279;50.010;8.260;2022-09-03T01:43:33;100010.44;;;18.97;42.60
26657;BME280;14279;50.010;8.260;2022-09-03T01:46:12;100009.63;;;19.06;42.21
26657;BME280;14279;50.010;8.260;2022-09-03T01:48:49;100013.38;;;19.04;42.69
26657;BME280;14279;50.010;8.260;2022-09-03T01:51:23;100014.50;;;19.01;42.42
26657;BME280;14279;50.010;8.260;2022-09-03T01:54:13;100013.94;;;19.07;42.58
26657;BME280;14279;50.010;8.260;2022-09-03T01:57:18;100014.81;;;19.18;42.39
26657;BME280;14279;50.010;8.260;2022-09-03T02:00:08;100013.94;;;19.17;42.35
26657;BME280;14279;50.010;8.260;2022-09-03T02:02:38;100012.16;;;19.18;42.55
26657;BME280;14279;50.010;8.260;2022-09-03T02:05:33;100020.06;;;19.08;42.60
26657;BME280;14279;50.010;8.260;2022-09-03T02:08:04;100020.50;;;19.23;42.57
26657;BME280;14279;50.010;8.260;2022-09-03T02:10:40;100021.34;;;19.43;42.67
26657;BME280;14279;50.010;8.260;2022-09-03T02:13:21;100019.28;;;19.37;42.37
26657;BME280;14279;50.010;8.260;2022-09-03T02:15:49;100020.22;;;19.26;42.48
26657;BME280;14279;50.010;8.260;2022-09-03T02:18:19;100024.56;;;19.37;42.07
26657;BME280;14279;50.010;8.260;2022-09-03T02:20:47;100019.16;;;19.48;42.33
26657;BME280;14279;50.010;8.260;2022-09-03T02:23:13;100012.19;;;19.47;42.69
26657;BME280;14279;50.010;8.260;2022-09-03T02:25:44;100008.59;;;19.58;42.48
26657;BME280;14279;50.010;8.260;2022-09-03T02:28:11;100011.94;;;19.70;42.02
26657;BME280;14279;50.010;8.260;2022-09-03T02:31:00;100014.56;;;19.60;41.96
26657;BME280;14279;50.010;8.260;2022-09-03T02:33:26;100014.13;;;19.45;41.74
26657;BME280;14279;50.010;8.260;2022-09-03T02:35:52;100014.41;;;19.42;42.06
26657;BME280;14279;50.010;8.260;2022-09-03T02:38:23;100017.03;;;19.32;42.33
26657;BME280;14279;50.010;8.260;2022-09-03T02:40:50;100006.47;;;19.22;42.46
26657;BME280;14279;50.010;8.260;2022-09-03T02:43:22;100009.53;;;19.28;42.34
26657;BME280;14279;50.010;8.260;2022-09-03T02:45:50;100005.88;;;18.99;42.84
26657;BME280;14279;50.010;8.260;2022-09-03T02:48:22;100006.13;;;18.96;42.71
26657;BME280;14279;50.010;8.260;2022-09-03T02:50:47;100014.63;;;19.10;42.63
26657;BME280;14279;50.010;8.260;2022-09-03T02:53:13;100015.59;;;19.08;42.85
26657;BME280;14279;50.010;8.260;2022-09-03T02:55:38;100016.44;;;19.09;42.88
26657;BME280;14279;50.010;8.260;2022-09-03T02:58:03;100010.47;;;19.07;42.90
26657;BME280;14279;50.010;8.260;2022-09-03T03:00:31;100015.47;;;19.00;43.18
26657;BME280;14279;50.010;8.260;2022-09-03T03:02:56;100014.78;;;19.08;42.91
26657;BME280;14279;50.010;8.260;2022-09-03T03:05:29;100011.50;;;18.95;43.25
26657;BME280;14279;50.010;8.260;2022-09-03T03:07:56;100010.91;;;19.12;42.99
26657;BME280;14279;50.010;8.260;2022-09-03T03:10:22;100008.66;;;19.07;43.18
26657;BME280;14279;50.010;8.260;2022-09-03T03:12:47;100004.22;;;19.08;43.10
26657;BME280;14279;50.010;8.260;2022-09-03T03:15:12;100012.00;;;19.10;42.96
26657;BME280;14279;50.010;8.260;2022-09-03T03:17:39;100016.56;;;19.07;42.99
26657;BME280;14279;50.010;8.260;2022-09-03T03:20:05;100012.59;;;19.23;43.09
26657;BME280;14279;50.010;8.260;2022-09-03T03:22:30;100008.84;;;19.26;42.95
26657;BME280;14279;50.010;8.260;2022-09-03T03:24:55;100009.09;;;19.22;43.31
26657;BME280;14279;50.010;8.260;2022-09-03T03:27:21;100014.06;;;19.06;43.52
26657;BME280;14279;50.010;8.260;2022-09-03T03:29:47;100012.28;;;19.16;43.25
26657;BME280;14279;50.010;8.260;2022-09-03T03:32:14;100005.75;;;19.11;43.21
26657;BME280;14279;50.010;8.260;2022-09-03T03:34:39;100007.72;;;18.77;43.62
26657;BME280;14279;50.010;8.260;2022-09-03T03:37:04;100004.34;;;18.66;43.87
26657;BME280;14279;50.010;8.260;2022-09-03T03:39:30;100009.22;;;18.80;43.87
26657;BME280;14279;50.010;8.260;2022-09-03T03:41:55;100007.16;;;18.84;44.08
26657;BME280;14279;50.010;8.260;2022-09-03T03:44:20;99998.88;;;18.88;44.40
26657;BME280;14279;50.010;8.260;2022-09-03T03:46:45;99994.81;;;18.84;44.25
26657;BME280;14279;50.010;8.260;2022-09-03T03:49:11;100003.41;;;18.76;43.96
26657;BME280;14279;50.010;8.260;2022-09-03T03:51:37;100003.44;;;18.86;44.00
26657;BME280;14279;50.010;8.260;2022-09-03T03:54:03;100001.31;;;18.80;44.43
26657;BME280;14279;50.010;8.260;2022-09-03T03:56:28;100001.09;;;18.93;43.85
26657;BME280;14279;50.010;8.260;2022-09-03T03:58:53;99998.16;;;18.86;44.21
26657;BME280;14279;50.010;8.260;2022-09-03T04:01:24;100011.78;;;18.60;44.67
26657;BME280;14279;50.010;8.260;2022-09-03T04:03:51;100006.72;;;18.78;44.49
26657;BME280;14279;50.010;8.260;2022-09-03T04:06:18;100010.97;;;18.70;44.61
26657;BME280;14279;50.010;8.260;2022-09-03T04:08:45;100001.41;;;18.69;44.37
26657;BME280;14279;50.010;8.260;2022-09-03T04:11:15;99997.91;;;18.58;44.43
26657;BME280;14279;50.010;8.260;2022-09-03T04:13:42;99999.47;;;18.71;44.48
26657;BME280;14279;50.010;8.260;2022-09-03T04:16:12;100008.91;;;18.63;44.93
26657;BME280;14279;50.010;8.260;2022-09-03T04:18:38;99997.09;;;18.68;44.74
26657;BME280;14279;50.010;8.260;2022-09-03T04:21:08;99996.28;;;18.67;44.98
26657;BME280;14279;50.010;8.260;2022-09-03T04:23:37;99994.59;;;18.66;45.18
26657;BME280;14279;50.010;8.260;2022-09-03T04:26:03;99986.97;;;18.63;45.05
26657;BME280;14279;50.010;8.260;2022-09-03T04:28:28;99993.09;;;18.63;45.37
26657;BME280;14279;50.010;8.260;2022-09-03T04:30:54;99992.16;;;18.74;44.83
26657;BME280;14279;50.010;8.260;2022-09-03T04:33:19;100001.88;;;18.84;44.91
26657;BME280;14279;50.010;8.260;2022-09-03T04:35:45;99986.50;;;18.89;44.78
26657;BME280;14279;50.010;8.260;2022-09-03T04:38:10;99993.16;;;18.83;44.89
26657;BME280;14279;50.010;8.260;2022-09-03T04:40:36;99996.72;;;18.72;44.85
26657;BME280;14279;50.010;8.260;2022-09-03T04:43:01;99989.09;;;18.48;45.13
26657;BME280;14279;50.010;8.260;2022-09-03T04:45:27;99995.22;;;18.48;45.40
26657;BME280;14279;50.010;8.260;2022-09-03T04:48:02;99992.97;;;18.44;45.45
26657;BME280;14279;50.010;8.260;2022-09-03T04:50:29;100002.25;;;18.38;45.84
26657;BME280;14279;50.010;8.260;2022-09-03T04:53:00;100001.56;;;18.46;45.79
26657;BME280;14279;50.010;8.260;2022-09-03T04:55:25;100003.84;;;18.51;45.92
26657;BME280;14279;50.010;8.260;2022-09-03T04:57:51;100000.94;;;18.54;45.73
26657;BME280;14279;50.010;8.260;2022-09-03T05:00:16;100008.53;;;18.47;45.77
26657;BME280;14279;50.010;8.260;2022-09-03T05:02:45;100014.38;;;18.51;45.68
26657;BME280;14279;50.010;8.260;2022-09-03T05:05:12;100014.44;;;18.60;45.73
26657;BME280;14279;50.010;8.260;2022-09-03T05:07:38;100012.34;;;18.64;45.33
26657;BME280;14279;50.010;8.260;2022-09-03T05:10:08;100015.03;;;18.74;45.16
26657;BME280;14279;50.010;8.260;2022-09-03T05:12:37;100015.66;;;18.87;45.34
26657;BME280;14279;50.010;8.260;2022-09-03T05:15:03;100018.91;;;19.01;45.19
26657;BME280;14279;50.010;8.260;2022-09-03T05:17:29;100027.38;;;19.04;45.35
26657;BME280;14279;50.010;8.260;2022-09-03T05:19:54;100024.47;;;19.07;45.39
26657;BME280;14279;50.010;8.260;2022-09-03T05:22:19;100033.97;;;18.89;45.78
26657;BME280;14279;50.010;8.260;2022-09-03T05:24:48;100027.53;;;18.82;45.80
26657;BME280;14279;50.010;8.260;2022-09-03T05:27:15;100024.34;;;18.78;46.04
26657;BME280;14279;50.010;8.260;2022-09-03T05:29:43;100037.78;;;18.75;45.70
26657;BME280;14279;50.010;8.260;2022-09-03T05:32:09;100038.81;;;18.84;46.06
26657;BME280;14279;50.010;8.260;2022-09-03T05:34:36;100042.63;;;18.70;46.26
26657;BME280;14279;50.010;8.260;2022-09-03T05:37:01;100045.03;;;18.83;45.99
26657;BME280;14279;50.010;8.260;2022-09-03T05:39:26;100053.16;;;18.70;45.72
26657;BME280;14279;50.010;8.260;2022-09-03T05:41:51;100060.13;;;18.71;45.92
26657;BME280;14279;50.010;8.260;2022-09-03T05:44:17;100055.94;;;18.68;45.79
26657;BME280;14279;50.010;8.260;2022-09-03T05:46:43;100060.97;;;18.71;45.85
26657;BME280;14279;50.010;8.260;2022-09-03T05:49:08;100065.13;;;18.74;46.43
26657;BME280;14279;50.010;8.260;2022-09-03T05:51:36;100067.31;;;18.69;46.20
26657;BME280;14279;50.010;8.260;2022-09-03T05:54:03;100063.75;;;18.48;47.51
26657;BME280;14279;50.010;8.260;2022-09-03T05:56:30;100068.06;;;18.28;49.05
26657;BME280;14279;50.010;8.260;2022-09-03T05:58:57;100071.72;;;18.16;49.83
26657;BME280;14279;50.010;8.260;2022-09-03T06:01:31;100073.13;;;17.99;49.82
26657;BME280;14279;50.010;8.260;2022-09-03T06:04:01;100076.47;;;18.01;49.73
26657;BME280;14279;50.010;8.260;2022-09-03T06:06:28;100076.84;;;17.73;50.60
26657;BME280;14279;50.010;8.260;2022-09-03T06:09:02;100071.69;;;17.83;50.95
26657;BME280;14279;50.010;8.260;2022-09-03T06:11:29;100075.81;;;17.97;51.00
26657;BME280;14279;50.010;8.260;2022-09-03T06:13:56;100075.75;;;17.99;50.58
26657;BME280;14279;50.010;8.260;2022-09-03T06:16:23;100083.66;;;18.20;50.98
26657;BME280;14279;50.010;8.260;2022-09-03T06:18:48;100077.22;;;18.34;50.78
26657;BME280;14279;50.010;8.260;2022-09-03T06:21:14;100087.72;;;18.45;50.22
26657;BME280;14279;50.010;8.260;2022-09-03T06:23:40;100085.28;;;18.54;51.15
26657;BME280;14279;50.010;8.260;2022-09-03T06:26:08;100083.22;;;18.36;51.20
26657;BME280;14279;50.010;8.260;2022-09-03T06:28:35;100090.22;;;18.47;52.13
26657;BME280;14279;50.010;8.260;2022-09-03T06:31:03;100097.75;;;18.52;52.57
26657;BME280;14279;50.010;8.260;2022-09-03T06:33:31;100092.50;;;18.52;51.52
26657;BME280;14279;50.010;8.260;2022-09-03T06:35:58;100100.66;;;18.48;52.54
26657;BME280;14279;50.010;8.260;2022-09-03T06:38:29;100091.13;;;18.36;52.43
26657;BME280;14279;50.010;8.260;2022-09-03T06:40:57;100080.78;;;18.44;52.71
26657;BME280;14279;50.010;8.260;2022-09-03T06:43:27;100090.38;;;18.45;52.19
26657;BME280;14279;50.010;8.260;2022-09-03T06:46:01;100089.47;;;18.56;52.24
26657;BME280;14279;50.010;8.260;2022-09-03T06:48:29;100084.44;;;18.53;52.21
26657;BME280;14279;50.010;8.260;2022-09-03T06:54:24;100087.31;;;18.71;52.63
26657;BME280;14279;50.010;8.260;2022-09-03T06:56:49;100095.50;;;18.68;52.76
26657;BME280;14279;50.010;8.260;2022-09-03T06:59:14;100087.59;;;18.68;51.90
26657;BME280;14279;50.010;8.260;2022-09-03T07:01:41;100081.16;;;18.61;52.20
26657;BME280;14279;50.010;8.260;2022-09-03T07:04:08;100084.38;;;18.65;52.21
26657;BME280;14279;50.010;8.260;2022-09-03T07:06:36;100081.66;;;18.55;53.01
26657;BME280;14279;50.010;8.260;2022-09-03T07:09:28;100082.38;;;18.57;53.37
26657;BME280;14279;50.010;8.260;2022-09-03T07:12:37;100082.00;;;18.40;53.68
26657;BME280;14279;50.010;8.260;2022-09-03T07:15:39;100083.28;;;18.25;54.58
26657;BME280;14279;50.010;8.260;2022-09-03T07:18:05;100083.25;;;18.03;55.43
26657;BME280;14279;50.010;8.260;2022-09-03T07:26:53;100083.63;;;17.87;58.53
26657;BME280;14279;50.010;8.260;2022-09-03T07:29:37;100092.25;;;18.01;57.38
26657;BME280;14279;50.010;8.260;2022-09-03T07:32:02;100096.06;;;17.97;58.48
26657;BME280;14279;50.010;8.260;2022-09-03T07:34:27;100093.59;;;17.84;59.60
26657;BME280;14279;50.010;8.260;2022-09-03T07:36:53;100096.38;;;17.71;59.78
26657;BME280;14279;50.010;8.260;2022-09-03T07:39:18;100101.78;;;17.69;60.66
26657;BME280;14279;50.010;8.260;2022-09-03T07:44:59;100107.41;;;17.65;61.68
26657;BME280;14279;50.010;8.260;2022-09-03T07:47:46;100104.44;;;17.58;64.67
26657;BME280;14279;50.010;8.260;2022-09-03T07:50:13;100110.06;;;17.42;66.17
26657;BME280;14279;50.010;8.260;2022-09-03T07:52:40;100109.38;;;17.28;66.30
26657;BME280;14279;50.010;8.260;2022-09-03T07:55:06;100115.09;;;17.11;67.83
26657;BME280;14279;50.010;8.260;2022-09-03T07:57:31;100117.97;;;17.19;67.42
26657;BME280;14279;50.010;8.260;2022-09-03T07:59:56;100116.19;;;17.20;68.06
26657;BME280;14279;50.010;8.260;2022-09-03T08:02:22;100114.63;;;17.17;69.14
26657;BME280;14279;50.010;8.260;2022-09-03T08:04:47;100107.72;;;17.05;70.71
26657;BME280;14279;50.010;8.260;2022-09-03T08:07:12;100112.00;;;17.06;70.50
26657;BME280;14279;50.010;8.260;2022-09-03T08:09:37;100123.38;;;17.18;68.96
26657;BME280;14279;50.010;8.260;2022-09-03T08:12:03;100125.88;;;17.08;72.16
26657;BME280;14279;50.010;8.260;2022-09-03T08:14:31;100128.34;;;16.98;73.22
26657;BME280;14279;50.010;8.260;2022-09-03T08:16:59;100133.16;;;17.04;71.43
26657;BME280;14279;50.010;8.260;2022-09-03T08:19:27;100131.97;;;16.97;71.53
26657;BME280;14279;50.010;8.260;2022-09-03T08:21:53;100131.59;;;17.13;71.74
26657;BME280;14279;50.010;8.260;2022-09-03T08:24:18;100127.66;;;17.30;72.46
26657;BME280;14279;50.010;8.260;2022-09-03T08:26:46;100118.81;;;17.31;71.23
26657;BME280;14279;50.010;8.260;2022-09-03T08:29:11;100113.91;;;17.15;70.91
26657;BME280;14279;50.010;8.260;2022-09-03T08:31:36;100126.94;;;17.05;71.60
26657;BME280;14279;50.010;8.260;2022-09-03T08:34:04;100121.88;;;16.91;70.06
26657;BME280;14279;50.010;8.260;2022-09-03T08:36:34;100120.84;;;17.05;69.87
26657;BME280;14279;50.010;8.260;2022-09-03T08:39:02;100122.63;;;17.27;69.76
26657;BME280;14279;50.010;8.260;2022-09-03T08:49:30;100149.78;;;18.17;68.83
26657;BME280;14279;50.010;8.260;2022-09-03T08:52:02;100140.66;;;18.21;67.01
26657;BME280;14279;50.010;8.260;2022-09-03T08:54:31;100146.63;;;18.23;68.31
26657;BME280;14279;50.010;8.260;2022-09-03T08:56:59;100151.66;;;18.26;68.18
26657;BME280;14279;50.010;8.260;2022-09-03T08:59:26;100144.16;;;18.43;66.47
26657;BME280;14279;50.010;8.260;2022-09-03T09:01:56;100150.16;;;18.66;65.85
26657;BME280;14279;50.010;8.260;2022-09-03T09:04:43;100156.69;;;18.72;64.40
26657;BME280;14279;50.010;8.260;2022-09-03T09:14:35;100157.22;;;18.87;63.65
26657;BME280;14279;50.010;8.260;2022-09-03T09:20:44;100169.75;;;18.95;62.78
26657;BME280;14279;50.010;8.260;2022-09-03T09:23:14;100165.31;;;19.16;62.86
26657;BME280;14279;50.010;8.260;2022-09-03T09:25:48;100167.59;;;19.00;63.47
26657;BME280;14279;50.010;8.260;2022-09-03T09:28:20;100164.19;;;19.09;63.60
26657;BME280;14279;50.010;8.260;2022-09-03T09:30:47;100159.16;;;19.37;63.51
26657;BME280;14279;50.010;8.260;2022-09-03T09:33:14;100165.28;;;19.37;62.83
26657;BME280;14279;50.010;8.260;2022-09-03T09:35:41;100159.53;;;19.32;62.51
26657;BME280;14279;50.010;8.260;2022-09-03T09:38:07;100166.06;;;19.69;61.00
26657;BME280;14279;50.010;8.260;2022-09-03T09:40:36;100171.72;;;19.95;60.10
26657;BME280;14279;50.010;8.260;2022-09-03T09:43:07;100174.50;;;20.23;59.54
26657;BME280;14279;50.010;8.260;2022-09-03T09:45:34;100174.22;;;20.17;59.63
26657;BME280;14279;50.010;8.260;2022-09-03T09:48:09;100168.81;;;20.08;59.64
26657;BME280;14279;50.010;8.260;2022-09-03T09:50:37;100158.09;;;19.90;59.88
26657;BME280;14279;50.010;8.260;2022-09-03T09:53:06;100160.53;;;19.82;59.90
26657;BME280;14279;50.010;8.260;2022-09-03T09:58:21;100157.28;;;20.19;58.77
26657;BME280;14279;50.010;8.260;2022-09-03T10:00:55;100156.72;;;20.45;58.50
26657;BME280;14279;50.010;8.260;2022-09-03T10:03:20;100158.97;;;20.30;59.24
26657;BME280;14279;50.010;8.260;2022-09-03T10:06:03;100160.19;;;20.36;59.02
26657;BME280;14279;50.010;8.260;2022-09-03T10:08:49;100163.06;;;20.72;58.00
26657;BME280;14279;50.010;8.260;2022-09-03T10:11:16;100158.34;;;20.85;57.02
26657;BME280;14279;50.010;8.260;2022-09-03T10:13:45;100158.09;;;20.69;58.49
26657;BME280;14279;50.010;8.260;2022-09-03T10:16:26;100161.56;;;20.60;58.02
26657;BME280;14279;50.010;8.260;2022-09-03T10:19:15;100169.22;;;20.72;58.69
26657;BME280;14279;50.010;8.260;2022-09-03T10:24:37;100164.06;;;20.61;59.02
26657;BME280;14279;50.010;8.260;2022-09-03T10:27:07;100168.09;;;20.65;58.91
26657;BME280;14279;50.010;8.260;2022-09-03T10:29:35;100160.03;;;20.47;58.83
26657;BME280;14279;50.010;8.260;2022-09-03T10:37:41;100168.63;;;20.98;56.84
26657;BME280;14279;50.010;8.260;2022-09-03T10:40:24;100165.00;;;21.37;56.09
26657;BME280;14279;50.010;8.260;2022-09-03T10:46:01;100166.38;;;21.97;53.83
26657;BME280;14279;50.010;8.260;2022-09-03T10:48:55;100164.09;;;21.28;56.31
26657;BME280;14279;50.010;8.260;2022-09-03T10:51:41;100169.13;;;21.50;56.04
26657;BME280;14279;50.010;8.260;2022-09-03T10:54:28;100169.22;;;21.58;55.90
26657;BME280;14279;50.010;8.260;2022-09-03T10:57:06;100166.59;;;21.58;55.23
26657;BME280;14279;50.010;8.260;2022-09-03T10:59:42;100170.06;;;21.58;55.71
26657;BME280;14279;50.010;8.260;2022-09-03T11:05:22;100167.25;;;21.70;56.39
26657;BME280;14279;50.010;8.260;2022-09-03T11:07:53;100157.25;;;21.64;56.14
26657;BME280;14279;50.010;8.260;2022-09-03T11:10:28;100149.16;;;21.65;56.55
26657;BME280;14279;50.010;8.260;2022-09-03T11:13:04;100156.94;;;21.67;56.62
26657;BME280;14279;50.010;8.260;2022-09-03T11:15:50;100147.78;;;21.79;56.58
26657;BME280;14279;50.010;8.260;2022-09-03T11:18:35;100143.38;;;21.98;56.32
26657;BME280;14279;50.010;8.260;2022-09-03T11:21:11;100134.03;;;22.30;55.07
26657;BME280;14279;50.010;8.260;2022-09-03T11:23:43;100143.66;;;22.75;54.08
26657;BME280;14279;50.010;8.260;2022-09-03T11:26:12;100140.81;;;22.69;53.67
26657;BME280;14279;50.010;8.260;2022-09-03T11:28:55;100146.88;;;22.79;54.08
26657;BME280;14279;50.010;8.260;2022-09-03T11:37:04;100137.38;;;22.76;53.95
26657;BME280;14279;50.010;8.260;2022-09-03T11:42:03;100127.50;;;22.42;54.38
26657;BME280;14279;50.010;8.260;2022-09-03T11:44:45;100125.41;;;22.99;53.52
26657;BME280;14279;50.010;8.260;2022-09-03T11:50:16;100122.69;;;22.82;54.16
26657;BME280;14279;50.010;8.260;2022-09-03T11:53:53;100120.59;;;23.02;53.67
26657;BME280;14279;50.010;8.260;2022-09-03T11:56:19;100121.66;;;23.09;53.75
26657;BME280;14279;50.010;8.260;2022-09-03T11:58:45;100117.41;;;23.25;53.10
26657;BME280;14279;50.010;8.260;2022-09-03T12:01:13;100112.41;;;23.56;52.46
26657;BME280;14279;50.010;8.260;2022-09-03T12:03:45;100113.31;;;23.31;53.04
26657;BME280;14279;50.010;8.260;2022-09-03T12:09:37;100105.75;;;23.18;53.55
26657;BME280;14279;50.010;8.260;2022-09-03T12:18:01;100106.81;;;22.64;55.76
26657;BME280;14279;50.010;8.260;2022-09-03T12:20:43;100103.88;;;22.49;55.74
26657;BME280;14279;50.010;8.260;2022-09-03T12:23:10;100098.28;;;22.34;56.56
26657;BME280;14279;50.010;8.260;2022-09-03T12:25:44;100091.16;;;22.34;56.40
26657;BME280;14279;50.010;8.260;2022-09-03T12:28:15;100092.28;;;22.32;56.58
26657;BME280;14279;50.010;8.260;2022-09-03T12:30:41;100086.97;;;22.76;55.47
26657;BME280;14279;50.010;8.260;2022-09-03T12:33:07;100083.06;;;22.89;55.14
26657;BME280;14279;50.010;8.260;2022-09-03T12:35:39;100086.09;;;23.29;54.53
26657;BME280;14279;50.010;8.260;2022-09-03T12:38:24;100086.34;;;23.17;54.00
26657;BME280;14279;50.010;8.260;2022-09-03T12:41:19;100087.00;;;23.11;54.38
26657;BME280;14279;50.010;8.260;2022-09-03T12:43:51;100076.81;;;23.33;53.91
26657;BME280;14279;50.010;8.260;2022-09-03T12:46:16;100088.50;;;23.65;53.67
26657;BME280;14279;50.010;8.260;2022-09-03T12:49:03;100085.22;;;23.79;52.96
26657;BME280;14279;50.010;8.260;2022-09-03T12:51:39;100084.09;;;24.15;51.50
26657;BME280;14279;50.010;8.260;2022-09-03T12:54:09;100080.44;;;24.16;52.17
26657;BME280;14279;50.010;8.260;2022-09-03T12:56:41;100090.41;;;24.06;51.76
26657;BME280;14279;50.010;8.260;2022-09-03T12:59:12;100092.19;;;23.97;52.15
26657;BME280;14279;50.010;8.260;2022-09-03T13:01:46;100087.66;;;23.72;52.94
26657;BME280;14279;50.010;8.260;2022-09-03T13:04:33;100079.09;;;24.20;51.57
26657;BME280;14279;50.010;8.260;2022-09-03T13:07:25;100074.41;;;24.55;50.69
26657;BME280;14279;50.010;8.260;2022-09-03T13:09:59;100073.75;;;24.53;51.14
26657;BME280;14279;50.010;8.260;2022-09-03T13:12:31;100073.25;;;24.41;51.23
26657;BME280;14279;50.010;8.260;2022-09-03T13:15:07;100075.34;;;24.87;50.26
26657;BME280;14279;50.010;8.260;2022-09-03T13:20:50;100080.81;;;24.94;50.21
26657;BME280;14279;50.010;8.260;2022-09-03T13:23:51;100083.69;;;24.84;49.47
26657;BME280;14279;50.010;8.260;2022-09-03T13:26:28;100082.75;;;25.09;48.60
26657;BME280;14279;50.010;8.260;2022-09-03T13:29:27;100080.88;;;25.17;48.71
26657;BME280;14279;50.010;8.260;2022-09-03T13:32:19;100085.47;;;25.32;47.14
26657;BME280;14279;50.010;8.260;2022-09-03T13:34:50;100084.50;;;24.85;49.23
26657;BME280;14279;50.010;8.260;2022-09-03T13:37:37;100086.69;;;24.81;49.04
26657;BME280;14279;50.010;8.260;2022-09-03T13:40:17;100080.34;;;24.82;48.75
26657;BME280;14279;50.010;8.260;2022-09-03T13:42:57;100082.75;;;25.40;47.81
26657;BME280;14279;50.010;8.260;2022-09-03T13:45:44;100086.63;;;24.98;48.25
26657;BME280;14279;50.010;8.260;2022-09-03T13:48:29;100088.16;;;25.24;48.12
26657;BME280;14279;50.010;8.260;2022-09-03T13:54:17;100076.22;;;24.71;49.39
26657;BME280;14279;50.010;8.260;2022-09-03T13:57:03;100082.84;;;24.67;49.65
26657;BME280;14279;50.010;8.260;2022-09-03T14:02:30;100071.47;;;24.17;51.14
26657;BME280;14279;50.010;8.260;2022-09-03T14:05:06;100076.59;;;24.43;50.96
26657;BME280;14279;50.010;8.260;2022-09-03T14:12:43;100066.31;;;24.97;49.53
26657;BME280;14279;50.010;8.260;2022-09-03T14:15:21;100065.41;;;25.13;49.13
26657;BME280;14279;50.010;8.260;2022-09-03T14:18:22;100066.72;;;25.25;48.41
26657;BME280;14279;50.010;8.260;2022-09-03T14:20:58;100069.63;;;25.47;48.43
26657;BME280;14279;50.010;8.260;2022-09-03T14:23:50;100067.41;;;25.50;48.38
26657;BME280;14279;50.010;8.260;2022-09-03T14:26:34;100066.75;;;25.09;49.14
26657;BME280;14279;50.010;8.260;2022-09-03T14:34:21;100073.72;;;24.61;50.34
26657;BME280;14279;50.010;8.260;2022-09-03T14:37:17;100082.22;;;24.73;50.48
26657;BME280;14279;50.010;8.260;2022-09-03T14:43:25;100070.31;;;24.03;52.50
26657;BME280;14279;50.010;8.260;2022-09-03T14:48:55;100070.94;;;23.80;53.46
26657;BME280;14279;50.010;8.260;2022-09-03T15:00:15;100055.16;;;24.04;53.28
26657;BME280;14279;50.010;8.260;2022-09-03T15:02:58;100057.81;;;24.28;52.62
26657;BME280;14279;50.010;8.260;2022-09-03T15:05:41;100056.97;;;24.36;52.36
26657;BME280;14279;50.010;8.260;2022-09-03T15:11:20;100053.16;;;24.39;52.56
26657;BME280;14279;50.010;8.260;2022-09-03T15:13:53;100058.84;;;24.11;52.81
26657;BME280;14279;50.010;8.260;2022-09-03T15:16:30;100056.00;;;24.12;53.04
26657;BME280;14279;50.010;8.260;2022-09-03T15:22:07;100070.78;;;23.90;53.77
26657;BME280;14279;50.010;8.260;2022-09-03T15:24:50;100070.44;;;23.93;54.06
26657;BME280;14279;50.010;8.260;2022-09-03T15:28:06;100063.00;;;24.05;53.43
26657;BME280;14279;50.010;8.260;2022-09-03T15:30:44;100065.16;;;24.10;53.32
26657;BME280;14279;50.010;8.260;2022-09-03T15:33:22;100070.13;;;24.13;53.38
26657;BME280;14279;50.010;8.260;2022-09-03T15:36:08;100082.56;;;23.79;54.34
26657;BME280;14279;50.010;8.260;2022-09-03T15:38:58;100077.56;;;23.76;54.55